Dolliver, Iowa
Current Conditions -  °F | °C
As of 6:52 AM on Thursday 23 Oct 2014 (Local Time) from KEST Reporting Station
Moderate Fog Moderate Fog  
Wind Chill: 51°   Ceiling: 300
Heat Index: 51°   Visibility: 0.25mi
Dew Point: 51°   Wind: 6mph
Humidity: 100%   Direction: 320°NW
Pressure: 30"   Gusts: NA
Location:  43.46°N, 94.63°W
Report Text: KEST 231152Z AUTO 32005KT 1/4SM FG VV003 11/11 A3000 RMK AO2 SLP161 60001 70002 T01060106 10128 20106 53001
Loading
Personal Weather Stations






























Interactive Weather Map
Tropical Storm Tracking
New forecast layout! Learn more

10-Day Weather Forecast

Advertisements
Track Severe Weather on mobile